createdAt,value
2019-05-09T00:02:39.476Z,97732.50
2019-05-09T00:05:10.838Z,97735.36
2019-05-09T00:07:41.114Z,97731.10
2019-05-09T00:10:14.189Z,97731.63
2019-05-09T00:12:44.669Z,97716.19
2019-05-09T00:15:16.613Z,97715.69
2019-05-09T00:17:47.665Z,97630.79
2019-05-09T00:20:40.136Z,97710.77
2019-05-09T00:23:10.247Z,97709.19
2019-05-09T00:25:43.435Z,97717.41
2019-05-09T00:28:14.598Z,97723.80
2019-05-09T00:31:03.472Z,97725.69
2019-05-09T00:33:34.702Z,97715.19
2019-05-09T00:36:05.588Z,97707.08
2019-05-09T00:38:43.452Z,97703.95
2019-05-09T00:41:14.467Z,97697.40
2019-05-09T00:43:50.244Z,97708.16
2019-05-09T00:46:36.197Z,97706.32
2019-05-09T00:49:09.160Z,97721.30
2019-05-09T00:51:40.330Z,97724.75
2019-05-09T00:54:13.349Z,97732.91
2019-05-09T00:56:43.610Z,97749.99
2019-05-09T00:59:13.757Z,97744.95
2019-05-09T01:01:45.315Z,97740.48
2019-05-09T01:04:15.687Z,97742.33
2019-05-09T01:06:46.783Z,97734.70
2019-05-09T01:09:17.031Z,97736.01
2019-05-09T01:11:49.512Z,97651.83
2019-05-09T01:14:23.339Z,97734.17
2019-05-09T01:16:54.653Z,97745.72
2019-05-09T01:19:25.122Z,97738.31
2019-05-09T01:21:56.020Z,97732.77
2019-05-09T01:24:27.176Z,97737.50
2019-05-09T01:26:57.380Z,97735.11
2019-05-09T01:29:27.847Z,97734.02
2019-05-09T01:31:59.810Z,97738.50
2019-05-09T01:34:33.098Z,97743.73
2019-05-09T01:37:07.647Z,97746.07
2019-05-09T01:39:39.013Z,97745.02
2019-05-09T01:42:10.605Z,97755.31
2019-05-09T01:44:40.675Z,97759.29
2019-05-09T01:47:11.275Z,97766.63
2019-05-09T01:49:43.143Z,97761.89
2019-05-09T01:52:13.871Z,97760.81
2019-05-09T01:54:46.455Z,97766.37
2019-05-09T01:57:16.926Z,97772.21
2019-05-09T01:59:47.780Z,97676.97
2019-05-09T02:02:18.524Z,97769.64
2019-05-09T02:04:50.373Z,97762.30
2019-05-09T02:07:24.967Z,97768.36
2019-05-09T02:09:56.901Z,97687.30
2019-05-09T02:12:27.467Z,97772.61
2019-05-09T02:15:23.672Z,97780.79
2019-05-09T02:18:13.703Z,97778.94
2019-05-09T02:20:44.110Z,97775.02
2019-05-09T02:23:14.415Z,97778.69
2019-05-09T02:25:45.090Z,97778.45
2019-05-09T02:28:16.726Z,97768.72
2019-05-09T02:30:47.222Z,97771.87
2019-05-09T02:33:17.458Z,97771.08
2019-05-09T02:35:56.610Z,97771.09
2019-05-09T02:38:20.208Z,97781.84
2019-05-09T02:40:51.248Z,97785.02
2019-05-09T02:43:21.755Z,97756.34
2019-05-09T02:45:59.882Z,97793.94
2019-05-09T02:48:30.227Z,97795.25
2019-05-09T02:51:00.597Z,97795.50
2019-05-09T02:53:30.749Z,97790.27
2019-05-09T02:56:02.542Z,97790.27
2019-05-09T02:58:39.143Z,97793.66
2019-05-09T03:01:21.252Z,97792.86
2019-05-09T03:03:52.708Z,97792.31
2019-05-09T03:06:23.381Z,97787.62
2019-05-09T03:08:54.049Z,97789.15
2019-05-09T03:11:24.177Z,97784.14
2019-05-09T03:13:58.357Z,97789.92
2019-05-09T03:16:29.298Z,97784.69
2019-05-09T03:18:59.801Z,97781.27
2019-05-09T03:21:40.446Z,97771.80
2019-05-09T03:24:10.705Z,97783.06
2019-05-09T03:26:42.636Z,97771.78
2019-05-09T03:29:28.878Z,97773.03
2019-05-09T03:31:59.993Z,97771.73
2019-05-09T03:34:32.645Z,97778.28
2019-05-09T03:37:03.161Z,97765.13
2019-05-09T03:39:34.230Z,97774.04
2019-05-09T03:42:05.090Z,97778.17
2019-05-09T03:44:35.243Z,97779.23
2019-05-09T03:47:37.748Z,97774.78
2019-05-09T03:50:09.957Z,97773.45
2019-05-09T03:52:40.847Z,97776.34
2019-05-09T03:55:14.897Z,97778.36
2019-05-09T03:58:40.632Z,97776.23
2019-05-09T04:01:54.442Z,97786.45
2019-05-09T04:05:08.448Z,97786.97
2019-05-09T04:07:39.476Z,97782.80
2019-05-09T04:10:10.154Z,97787.72
2019-05-09T04:12:52.850Z,97793.17
2019-05-09T04:15:13.139Z,97795.55
2019-05-09T04:17:44.429Z,97802.34
2019-05-09T04:20:17.492Z,97803.41
2019-05-09T04:22:49.033Z,97816.59
2019-05-09T04:25:24.067Z,97808.48
2019-05-09T04:27:55.151Z,97823.72
2019-05-09T04:30:27.415Z,97831.31
2019-05-09T04:32:58.214Z,97832.41
2019-05-09T04:35:29.299Z,97830.33
2019-05-09T04:37:59.229Z,97832.19
2019-05-09T04:40:32.040Z,97827.18
2019-05-09T04:43:12.054Z,97828.98
2019-05-09T04:45:53.407Z,97840.30
2019-05-09T04:48:33.796Z,97827.48
2019-05-09T04:51:07.598Z,97828.58
2019-05-09T04:53:39.779Z,97832.86
2019-05-09T04:56:23.085Z,97828.20
2019-05-09T04:58:53.091Z,97837.70
2019-05-09T05:01:38.756Z,97844.06
2019-05-09T05:04:08.007Z,97843.59
2019-05-09T05:06:40.319Z,97848.34
2019-05-09T05:09:10.767Z,97847.81
2019-05-09T05:11:40.628Z,97850.42
2019-05-09T05:14:21.680Z,97852.02
2019-05-09T05:16:58.252Z,97848.61
2019-05-09T05:19:31.206Z,97849.91
2019-05-09T05:22:07.458Z,97852.01
2019-05-09T05:24:43.705Z,97847.27
2019-05-09T05:27:18.835Z,97848.33
2019-05-09T05:29:49.097Z,97835.99
2019-05-09T05:32:38.463Z,97837.29
2019-05-09T05:35:12.779Z,97842.82
2019-05-09T05:37:43.382Z,97748.23
2019-05-09T05:40:13.893Z,97842.03
2019-05-09T05:42:43.849Z,97828.61
2019-05-09T05:45:14.577Z,97825.45
2019-05-09T05:47:57.856Z,97830.97
2019-05-09T05:50:28.203Z,97830.44
2019-05-09T05:53:00.415Z,97741.94
2019-05-09T05:55:30.492Z,97826.23
2019-05-09T05:58:00.718Z,97825.16
2019-05-09T06:00:32.019Z,97828.30
2019-05-09T06:03:03.000Z,97825.91
2019-05-09T06:05:34.233Z,97818.80
2019-05-09T06:08:04.571Z,97812.70
2019-05-09T06:10:39.398Z,97817.95
2019-05-09T06:13:09.411Z,97809.55
2019-05-09T06:15:40.817Z,97814.02
2019-05-09T06:18:11.172Z,97808.08
2019-05-09T06:20:41.455Z,97816.50
2019-05-09T06:23:11.385Z,97823.22
2019-05-09T06:25:42.545Z,97808.33
2019-05-09T06:28:13.080Z,97811.50
2019-05-09T06:30:43.479Z,97816.88
2019-05-09T06:33:13.545Z,97741.22
2019-05-09T06:35:43.686Z,97823.66
2019-05-09T06:38:13.778Z,97818.31
2019-05-09T06:40:44.168Z,97816.91
2019-05-09T06:43:23.151Z,97820.34
2019-05-09T06:46:09.127Z,97818.57
2019-05-09T06:48:41.790Z,97814.04
2019-05-09T06:51:11.780Z,97816.03
2019-05-09T06:53:42.479Z,97821.83
2019-05-09T06:56:17.777Z,97814.05
2019-05-09T06:58:48.180Z,97819.38
2019-05-09T07:01:48.039Z,97733.58
2019-05-09T07:04:24.060Z,97820.92
2019-05-09T07:07:04.745Z,97797.58
2019-05-09T07:09:40.565Z,97818.62
2019-05-09T07:12:10.888Z,97823.33
2019-05-09T07:14:42.020Z,97825.73
2019-05-09T07:17:12.861Z,97762.22
2019-05-09T07:19:44.109Z,97822.88
2019-05-09T07:22:42.701Z,97829.44
2019-05-09T07:25:24.598Z,97818.45
2019-05-09T07:27:54.951Z,97827.16
2019-05-09T07:30:52.800Z,97831.47
2019-05-09T07:33:30.267Z,97830.30
2019-05-09T07:36:00.412Z,97820.83
2019-05-09T07:38:31.580Z,97826.85
2019-05-09T07:41:01.931Z,97826.67
2019-05-09T07:43:32.154Z,97830.94
2019-05-09T07:46:11.306Z,97836.50
2019-05-09T07:48:42.245Z,97829.59
2019-05-09T07:51:12.452Z,97831.13
2019-05-09T07:53:42.467Z,97829.28
2019-05-09T07:56:12.509Z,97830.01
2019-05-09T07:58:42.659Z,97824.42
2019-05-09T08:01:12.749Z,97823.95
2019-05-09T08:03:43.332Z,97825.02
2019-05-09T08:06:13.570Z,97821.94
2019-05-09T08:08:43.491Z,97737.84
2019-05-09T08:11:13.545Z,97815.00
2019-05-09T08:13:44.092Z,97819.94
2019-05-09T08:16:14.966Z,97819.83
2019-05-09T08:18:45.338Z,97814.04
2019-05-09T08:21:17.861Z,97823.94
2019-05-09T08:23:48.553Z,97820.47
2019-05-09T08:26:19.080Z,97822.07
2019-05-09T08:28:49.677Z,97733.98
2019-05-09T08:31:19.854Z,97813.64
2019-05-09T08:33:50.066Z,97824.11
2019-05-09T08:36:20.432Z,97820.20
2019-05-09T08:38:50.361Z,97824.04
2019-05-09T08:41:20.506Z,97819.34
2019-05-09T08:43:54.124Z,97824.90
2019-05-09T08:46:24.690Z,97824.44
2019-05-09T08:48:57.565Z,97821.83
2019-05-09T08:51:52.681Z,97819.81
2019-05-09T08:54:30.450Z,97825.33
2019-05-09T08:57:00.561Z,97832.33
2019-05-09T08:59:31.330Z,97829.09
2019-05-09T09:02:15.437Z,97828.91
2019-05-09T09:04:38.370Z,97831.02
2019-05-09T09:07:08.575Z,97828.02
2019-05-09T09:09:39.982Z,97764.23
2019-05-09T09:12:25.770Z,97835.20
2019-05-09T09:14:43.106Z,97832.52
2019-05-09T09:17:12.437Z,97823.95
2019-05-09T09:19:47.762Z,97816.12
2019-05-09T09:22:18.109Z,97819.50
2019-05-09T09:24:48.406Z,97817.98
2019-05-09T09:27:18.740Z,97821.48
2019-05-09T09:29:49.919Z,97807.30
2019-05-09T09:32:20.238Z,97804.50
2019-05-09T09:34:50.274Z,97806.02
2019-05-09T09:37:20.976Z,97727.27
2019-05-09T09:39:53.287Z,97815.48
2019-05-09T09:42:28.280Z,97828.46
2019-05-09T09:45:00.650Z,97815.93
2019-05-09T09:47:31.961Z,97818.08
2019-05-09T09:50:02.970Z,97812.21
2019-05-09T09:52:34.646Z,97809.96
2019-05-09T09:55:11.692Z,97811.40
2019-05-09T09:57:42.138Z,97814.69
2019-05-09T10:00:49.785Z,97815.56
2019-05-09T10:03:25.698Z,97817.98
2019-05-09T10:05:59.283Z,97820.50
2019-05-09T10:08:29.735Z,97818.91
2019-05-09T10:11:01.189Z,97809.87
2019-05-09T10:13:34.363Z,97814.88
2019-05-09T10:16:25.585Z,97816.67
2019-05-09T10:19:04.263Z,97815.04
2019-05-09T10:21:41.579Z,97814.59
2019-05-09T10:24:12.894Z,97739.31
2019-05-09T10:27:01.273Z,97821.80
2019-05-09T10:29:32.031Z,97815.20
2019-05-09T10:32:04.526Z,97819.13
2019-05-09T10:34:37.682Z,97824.25
2019-05-09T10:37:07.727Z,97809.34
2019-05-09T10:39:38.217Z,97804.48
2019-05-09T10:42:18.830Z,97802.11
2019-05-09T10:44:54.472Z,97808.59
2019-05-09T10:47:30.507Z,97802.83
2019-05-09T10:50:02.121Z,97808.33
2019-05-09T10:52:32.598Z,97813.70
2019-05-09T10:55:04.147Z,97794.06
2019-05-09T10:57:34.576Z,97787.09
2019-05-09T11:00:06.228Z,97788.95
2019-05-09T11:02:38.081Z,97781.25
2019-05-09T11:05:10.624Z,97781.78
2019-05-09T11:07:41.643Z,97776.06
2019-05-09T11:10:24.525Z,97778.26
2019-05-09T11:12:43.683Z,97786.03
2019-05-09T11:15:18.056Z,97785.28
2019-05-09T11:17:47.953Z,97780.70
2019-05-09T11:20:19.387Z,97786.78
2019-05-09T11:22:52.962Z,97792.89
2019-05-09T11:25:23.509Z,97777.72
2019-05-09T11:28:09.959Z,97775.52
2019-05-09T11:30:28.115Z,97775.54
2019-05-09T11:32:59.791Z,97781.47
2019-05-09T11:35:30.079Z,97767.56
2019-05-09T11:38:00.161Z,97773.72
2019-05-09T11:40:30.272Z,97772.01
2019-05-09T11:43:00.710Z,97774.21
2019-05-09T11:45:35.963Z,97776.07
2019-05-09T11:48:08.122Z,97756.55
2019-05-09T11:50:38.907Z,97747.34
2019-05-09T11:53:09.120Z,97767.33
2019-05-09T11:55:43.119Z,97760.79
2019-05-09T11:58:11.254Z,97769.95
2019-05-09T12:00:42.269Z,97764.26
2019-05-09T12:03:14.036Z,97770.66
2019-05-09T12:05:47.623Z,97762.15
2019-05-09T12:08:17.856Z,97771.81
2019-05-09T12:10:48.769Z,97765.86
2019-05-09T12:13:18.935Z,97762.84
2019-05-09T12:15:49.241Z,97771.61
2019-05-09T12:18:19.846Z,97768.03
2019-05-09T12:20:50.927Z,97766.03
2019-05-09T12:23:21.276Z,97776.84
2019-05-09T12:25:51.425Z,97773.87
2019-05-09T12:28:21.775Z,97686.89
2019-05-09T12:30:52.792Z,97773.45
2019-05-09T12:33:28.487Z,97779.55
2019-05-09T12:35:59.219Z,97777.00
2019-05-09T12:38:29.705Z,97782.45
2019-05-09T12:41:00.669Z,97778.89
2019-05-09T12:43:30.831Z,97796.13
2019-05-09T12:46:03.049Z,97786.95
2019-05-09T12:48:33.158Z,97713.90
2019-05-09T12:51:08.218Z,97778.42
2019-05-09T12:53:39.717Z,97781.17
2019-05-09T12:56:10.840Z,97781.05
2019-05-09T12:58:41.529Z,97778.05
2019-05-09T13:01:13.089Z,97778.20
2019-05-09T13:03:43.739Z,97720.64
2019-05-09T13:06:20.509Z,97779.73
2019-05-09T13:08:51.543Z,97775.80
2019-05-09T13:11:23.381Z,97786.89
2019-05-09T13:13:54.950Z,97785.56
2019-05-09T13:16:49.211Z,97790.63
2019-05-09T13:19:18.307Z,97784.67
2019-05-09T13:21:48.613Z,97780.01
2019-05-09T13:24:24.979Z,97786.53
2019-05-09T13:26:56.401Z,97781.95
2019-05-09T13:29:29.611Z,97775.02
2019-05-09T13:32:00.677Z,97773.37
2019-05-09T13:34:31.069Z,97769.14
2019-05-09T13:37:08.820Z,97772.62
2019-05-09T13:39:39.719Z,97786.05
2019-05-09T13:42:10.130Z,97766.33
2019-05-09T13:44:41.583Z,97763.17
2019-05-09T13:47:11.823Z,97764.08
2019-05-09T13:49:43.622Z,97759.77
2019-05-09T13:52:14.145Z,97753.20
2019-05-09T13:54:44.589Z,97764.72
2019-05-09T13:57:15.097Z,97758.73
2019-05-09T13:59:48.368Z,97771.39
2019-05-09T14:02:18.945Z,97767.78
2019-05-09T14:04:58.389Z,97775.14
2019-05-09T14:07:32.354Z,97774.22
2019-05-09T14:10:02.977Z,97781.52
2019-05-09T14:12:33.510Z,97808.05
2019-05-09T14:15:04.863Z,97811.20
2019-05-09T14:17:48.397Z,97825.48
2019-05-09T14:20:09.024Z,97820.17
2019-05-09T14:22:39.359Z,97816.88
2019-05-09T14:25:11.560Z,97835.21
2019-05-09T14:27:42.231Z,97833.91
2019-05-09T14:30:12.614Z,97830.29
2019-05-09T14:32:43.125Z,97846.09
2019-05-09T14:35:14.304Z,97844.45
2019-05-09T14:37:44.525Z,97846.21
2019-05-09T14:40:17.450Z,97845.76
2019-05-09T14:42:49.508Z,97850.02
2019-05-09T14:45:19.433Z,97847.55
2019-05-09T14:47:49.832Z,97847.31
2019-05-09T14:50:28.341Z,97843.56
2019-05-09T14:52:58.401Z,97838.63
2019-05-09T14:55:30.797Z,97833.73
2019-05-09T14:58:03.683Z,97829.14
2019-05-09T15:00:41.669Z,97837.67
2019-05-09T15:03:18.923Z,97836.84
2019-05-09T15:05:57.367Z,97832.16
2019-05-09T15:08:28.577Z,97830.28
2019-05-09T15:11:03.442Z,97833.48
2019-05-09T15:13:36.394Z,97826.66
2019-05-09T15:16:18.218Z,97827.30
2019-05-09T15:18:48.675Z,97822.96
2019-05-09T15:21:19.378Z,97816.16
2019-05-09T15:23:52.421Z,97816.26
2019-05-09T15:26:22.931Z,97812.58
2019-05-09T15:28:54.139Z,97807.11
2019-05-09T15:31:28.882Z,97810.21
2019-05-09T15:33:59.362Z,97806.90
2019-05-09T15:36:37.782Z,97803.27
2019-05-09T15:39:11.223Z,97805.09
2019-05-09T15:41:41.457Z,97808.45
2019-05-09T15:44:11.910Z,97805.08
2019-05-09T15:46:49.488Z,97804.55
2019-05-09T15:49:19.667Z,97809.39
2019-05-09T15:51:49.820Z,97806.49
2019-05-09T15:54:19.826Z,97805.25
2019-05-09T15:56:50.132Z,97798.61
2019-05-09T15:59:20.108Z,97796.17
2019-05-09T16:01:50.342Z,97802.67
2019-05-09T16:04:20.687Z,97801.80
2019-05-09T16:06:51.859Z,97793.36
2019-05-09T16:09:22.434Z,97798.23
2019-05-09T16:11:52.610Z,97793.39
2019-05-09T16:14:22.753Z,97791.61
2019-05-09T16:16:52.619Z,97712.62
2019-05-09T16:19:22.898Z,97788.91
2019-05-09T16:21:53.092Z,97788.70
2019-05-09T16:24:23.247Z,97784.84
2019-05-09T16:26:53.702Z,97794.91
2019-05-09T16:29:23.999Z,97791.37
2019-05-09T16:31:54.251Z,97793.56
2019-05-09T16:34:24.386Z,97790.61
2019-05-09T16:36:54.398Z,97797.81
2019-05-09T16:39:24.538Z,97804.73
2019-05-09T16:41:59.003Z,97801.43
2019-05-09T16:44:27.672Z,97798.28
2019-05-09T16:46:57.838Z,97807.22
2019-05-09T16:49:29.251Z,97806.27
2019-05-09T16:52:00.237Z,97809.66
2019-05-09T16:54:34.245Z,97806.09
2019-05-09T16:57:08.247Z,97806.34
2019-05-09T16:59:38.971Z,97809.86
2019-05-09T17:02:21.366Z,97809.66
2019-05-09T17:04:44.045Z,97811.67
2019-05-09T17:07:18.042Z,97812.87
2019-05-09T17:09:48.527Z,97813.84
2019-05-09T17:12:21.858Z,97824.94
2019-05-09T17:14:51.789Z,97823.86
2019-05-09T17:17:21.840Z,97832.34
2019-05-09T17:19:52.406Z,97830.97
2019-05-09T17:22:41.343Z,97828.45
2019-05-09T17:25:11.542Z,97831.70
2019-05-09T17:27:41.593Z,97834.59
2019-05-09T17:30:12.907Z,97838.56
2019-05-09T17:32:43.296Z,97843.80
2019-05-09T17:35:18.534Z,97843.41
2019-05-09T17:37:48.605Z,97847.77
2019-05-09T17:40:20.068Z,97845.66
2019-05-09T17:42:50.840Z,97844.12
2019-05-09T17:45:21.610Z,97770.41
2019-05-09T17:47:51.839Z,97848.92
2019-05-09T17:50:22.238Z,97852.45
2019-05-09T17:52:52.150Z,97849.44
2019-05-09T17:55:22.258Z,97847.52
2019-05-09T17:57:52.664Z,97857.27
2019-05-09T18:00:24.755Z,97854.38
2019-05-09T18:02:57.451Z,97859.16
2019-05-09T18:05:28.853Z,97854.63
2019-05-09T18:07:59.995Z,97860.38
2019-05-09T18:10:32.847Z,97851.33
2019-05-09T18:13:03.594Z,97851.91
2019-05-09T18:15:33.902Z,97855.06
2019-05-09T18:18:03.979Z,97853.92
2019-05-09T18:20:38.531Z,97854.09
2019-05-09T18:23:13.103Z,97861.16
2019-05-09T18:25:45.152Z,97862.86
2019-05-09T18:28:18.082Z,97861.61
2019-05-09T18:30:50.126Z,97864.12
2019-05-09T18:33:31.939Z,97870.22
2019-05-09T18:36:02.971Z,97871.33
2019-05-09T18:38:38.611Z,97878.47
2019-05-09T18:41:10.237Z,97875.30
2019-05-09T18:43:41.777Z,97882.44
2019-05-09T18:46:12.886Z,97897.49
2019-05-09T18:48:43.511Z,97888.07
2019-05-09T18:51:15.026Z,97887.98
2019-05-09T18:53:48.349Z,97889.72
2019-05-09T18:56:18.763Z,97889.70
2019-05-09T18:58:50.368Z,97893.09
2019-05-09T19:01:22.527Z,97895.50
2019-05-09T19:03:52.939Z,97897.64
2019-05-09T19:06:25.368Z,97899.55
2019-05-09T19:08:56.933Z,97903.31
2019-05-09T19:11:29.628Z,97909.81
2019-05-09T19:14:02.486Z,97912.31
2019-05-09T19:16:42.109Z,97917.59
2019-05-09T19:19:35.384Z,97922.38
2019-05-09T19:22:21.361Z,97930.88
2019-05-09T19:24:41.888Z,97927.71
2019-05-09T19:27:12.269Z,97930.18
2019-05-09T19:29:42.658Z,97931.76
2019-05-09T19:32:13.751Z,97935.46
2019-05-09T19:34:44.574Z,97938.14
2019-05-09T19:37:14.896Z,97947.41
2019-05-09T19:39:46.051Z,97955.10
2019-05-09T19:42:16.250Z,97954.31
2019-05-09T19:44:46.513Z,97960.38
2019-05-09T19:47:18.447Z,97961.66
2019-05-09T19:49:49.274Z,97959.28
2019-05-09T19:52:19.642Z,97962.94
2019-05-09T19:54:50.194Z,97960.30
2019-05-09T19:57:21.025Z,97964.30
2019-05-09T19:59:53.156Z,97968.03
2019-05-09T20:02:24.306Z,97971.16
2019-05-09T20:04:56.394Z,97976.66
2019-05-09T20:07:32.966Z,97977.17
2019-05-09T20:10:22.716Z,97983.47
2019-05-09T20:13:10.979Z,97990.38
2019-05-09T20:15:42.071Z,97989.84
2019-05-09T20:18:14.171Z,97987.51
2019-05-09T20:20:46.166Z,97997.80
2019-05-09T20:23:16.712Z,97913.74
2019-05-09T20:25:47.661Z,97920.06
2019-05-09T20:28:19.678Z,98008.88
2019-05-09T20:30:50.065Z,98013.84
2019-05-09T20:33:20.585Z,98010.42
2019-05-09T20:35:51.908Z,98009.39
2019-05-09T20:38:22.801Z,98012.56
2019-05-09T20:40:53.442Z,98013.13
2019-05-09T20:43:21.617Z,98009.70
2019-05-09T20:45:54.567Z,98022.36
2019-05-09T20:48:25.307Z,98021.56
2019-05-09T20:50:57.121Z,98020.80
2019-05-09T20:53:32.635Z,98028.72
2019-05-09T20:56:06.200Z,98028.19
2019-05-09T20:58:37.975Z,97898.89
2019-05-09T21:01:08.854Z,98042.66
2019-05-09T21:03:39.418Z,98048.47
2019-05-09T21:06:11.122Z,98059.55
2019-05-09T21:08:41.466Z,98058.78
2019-05-09T21:11:12.952Z,98058.78
2019-05-09T21:13:48.278Z,98055.64
2019-05-09T21:16:15.793Z,98059.57
2019-05-09T21:18:46.275Z,98064.08
2019-05-09T21:21:16.771Z,98064.61
2019-05-09T21:23:48.012Z,97998.35
2019-05-09T21:26:19.053Z,98075.13
2019-05-09T21:28:49.687Z,98084.38
2019-05-09T21:31:20.047Z,98082.86
2019-05-09T21:33:50.154Z,98090.49
2019-05-09T21:36:21.728Z,98091.30
2019-05-09T21:38:53.104Z,98095.82
2019-05-09T21:41:23.410Z,98097.44
2019-05-09T21:43:53.918Z,98104.27
2019-05-09T21:46:24.229Z,98110.34
2019-05-09T21:48:54.590Z,98110.59
2019-05-09T21:51:24.953Z,98109.81
2019-05-09T21:53:59.939Z,98112.69
2019-05-09T21:56:30.597Z,98113.50
2019-05-09T21:59:00.620Z,98117.97
2019-05-09T22:01:32.165Z,98120.08
2019-05-09T22:04:06.737Z,98118.23
2019-05-09T22:06:37.365Z,98118.52
2019-05-09T22:09:10.398Z,98124.57
2019-05-09T22:11:40.827Z,98125.09
2019-05-09T22:14:12.071Z,98126.94
2019-05-09T22:16:43.447Z,98132.47
2019-05-09T22:19:14.364Z,98138.27
2019-05-09T22:21:44.812Z,98138.02
2019-05-09T22:24:15.710Z,98144.86
2019-05-09T22:26:46.897Z,98143.53
2019-05-09T22:29:17.114Z,98144.59
2019-05-09T22:31:47.205Z,98145.12
2019-05-09T22:34:17.704Z,98152.77
2019-05-09T22:36:48.953Z,98150.92
2019-05-09T22:39:19.290Z,98154.61
2019-05-09T22:41:51.392Z,98146.70
2019-05-09T22:44:24.179Z,98153.82
2019-05-09T22:46:54.136Z,98157.76
2019-05-09T22:49:24.292Z,98164.63
2019-05-09T22:51:55.930Z,98161.45
2019-05-09T22:54:27.315Z,98159.08
2019-05-09T22:56:57.845Z,98155.91
2019-05-09T22:59:28.273Z,98158.55
2019-05-09T23:01:58.682Z,98158.29
2019-05-09T23:04:29.243Z,98163.81
2019-05-09T23:07:04.427Z,98168.03
2019-05-09T23:09:37.575Z,98176.47
2019-05-09T23:12:12.647Z,98178.83
2019-05-09T23:14:44.698Z,98183.05
2019-05-09T23:17:18.628Z,98187.00
2019-05-09T23:19:49.173Z,98187.80
2019-05-09T23:22:22.621Z,98190.68
2019-05-09T23:24:57.273Z,98187.00
2019-05-09T23:27:31.849Z,98192.79
2019-05-09T23:30:02.045Z,98183.86
2019-05-09T23:32:39.235Z,98184.12
2019-05-09T23:35:09.780Z,98187.53
2019-05-09T23:37:39.954Z,98183.05
2019-05-09T23:40:11.020Z,98186.48
2019-05-09T23:42:41.665Z,98188.84
2019-05-09T23:45:12.381Z,98185.66
2019-05-09T23:47:42.431Z,98173.26
2019-05-09T23:50:12.700Z,98188.81
2019-05-09T23:52:42.773Z,98187.21
2019-05-09T23:55:31.038Z,98191.15
2019-05-09T23:58:18.921Z,98190.61
